MSC Luisa — H9XU — position and weather

sailwx.info

Track history (hours):
 
Tides and Currents Weather Stations Pressure Air Temp Water Temp Dewpoint Dewpoint Depression Visibility Wind Speed Wind Dir Waves Ship Positions

MSC Luisa

Last reported at 2016-Feb-13 18:30 UTC. Time now 2016-Feb-13 19:27 UTC.
Position S 24°08' W 046°21'.

Length 300 m; draft 9.2 m.

Type: Ship. MMSI: 355308000.

Date/timePositionNaut miles runAvg speedWind from/ knotsBaromVisibWave heightAir tempDewpointWater temp
2016-Feb-13 18:30S 24°08' W 046°21'0 0.0
2016-Feb-13 17:29S 24°08' W 046°21'0 0.0
2016-Feb-13 16:29S 24°08' W 046°21'0 0.0
2016-Feb-13 15:29S 24°08' W 046°21'0 0.0
2016-Feb-13 14:28S 24°08' W 046°21'0 0.0
2016-Feb-13 13:25S 24°08' W 046°21'0 0.0
2016-Feb-13 12:27S 24°08' W 046°21'0 0.0
2016-Feb-13 11:33S 24°08' W 046°21'0 0.0
2016-Feb-13 10:26S 24°08' W 046°21'0 0.0
2016-Feb-13 09:32S 24°08' W 046°21'0 0.0
2016-Feb-13 08:07S 24°08' W 046°21'0 0.0
2016-Feb-13 07:31S 24°08' W 046°21'0 0.0
2016-Feb-13 06:25S 24°08' W 046°21'0 0.0
2016-Feb-13 05:30S 24°08' W 046°21'0 0.0
2016-Feb-13 04:30S 24°08' W 046°21'0 0.0
2016-Feb-13 03:29S 24°08' W 046°21'0 0.0
2016-Feb-13 02:23S 24°08' W 046°21'0 0.0
2016-Feb-13 01:32S 24°08' W 046°21'0 0.0
2016-Feb-13 00:28S 24°08' W 046°21'0 0.0
2016-Feb-12 23:28S 24°08' W 046°21'0 0.1
2016-Feb-12 22:28S 24°08' W 046°21'4 4.6
2016-Feb-12 21:34S 24°04' W 046°22'7 7.1
2016-Feb-12 20:34S 23°58' W 046°18'4 3.3
2016-Feb-12 19:26S 23°55' W 046°21'0 0.0
2016-Feb-12 18:31S 23°55' W 046°21'0 0.0
2016-Feb-12 15:12S 23°55' W 046°21'0 0.0
2016-Feb-12 14:30S 23°55' W 046°21'0 0.0
2016-Feb-12 13:23S 23°55' W 046°21'0 0.0
2016-Feb-12 12:29S 23°55' W 046°21'0 0.0
2016-Feb-12 11:28S 23°55' W 046°21'0 0.0
2016-Feb-12 10:31S 23°55' W 046°21'0 0.0
2016-Feb-12 09:33S 23°55' W 046°21'5 4.6
2016-Feb-12 08:33S 23°59' W 046°17'8 8.5
2016-Feb-12 07:33S 24°05' W 046°23'8 7.7
2016-Feb-12 06:32S 24°13' W 046°22'1010.4
2016-Feb-12 05:32S 24°21' W 046°14'1010.7
2016-Feb-12 04:33S 24°23' W 046°03'  
Track history (hours):
 
Tides and Currents Weather Stations Pressure Air Temp Water Temp Dewpoint Dewpoint Depression Visibility Wind Speed Wind Dir Waves Ship Positions

MSC Luisa

Last reported at 2016-Feb-13 18:30 UTC. Time now 2016-Feb-13 19:27 UTC.
Position S 24°08' W 046°21'.

Length 300 m; draft 9.2 m.

Type: Ship. MMSI: 355308000.

Date/timePositionNaut miles runAvg speedWind from/ knotsBaromVisibWave heightAir tempDewpointWater temp
2016-Feb-13 18:30S 24°08' W 046°21'0 0.0
2016-Feb-13 17:29S 24°08' W 046°21'0 0.0
2016-Feb-13 16:29S 24°08' W 046°21'0 0.0
2016-Feb-13 15:29S 24°08' W 046°21'0 0.0
2016-Feb-13 14:28S 24°08' W 046°21'0 0.0
2016-Feb-13 13:25S 24°08' W 046°21'0 0.0
2016-Feb-13 12:27S 24°08' W 046°21'0 0.0
2016-Feb-13 11:33S 24°08' W 046°21'0 0.0
2016-Feb-13 10:26S 24°08' W 046°21'0 0.0
2016-Feb-13 09:32S 24°08' W 046°21'0 0.0
2016-Feb-13 08:07S 24°08' W 046°21'0 0.0
2016-Feb-13 07:31S 24°08' W 046°21'0 0.0
2016-Feb-13 06:25S 24°08' W 046°21'0 0.0
2016-Feb-13 05:30S 24°08' W 046°21'0 0.0
2016-Feb-13 04:30S 24°08' W 046°21'0 0.0
2016-Feb-13 03:29S 24°08' W 046°21'0 0.0
2016-Feb-13 02:23S 24°08' W 046°21'0 0.0
2016-Feb-13 01:32S 24°08' W 046°21'0 0.0
2016-Feb-13 00:28S 24°08' W 046°21'0 0.0
2016-Feb-12 23:28S 24°08' W 046°21'0 0.1
2016-Feb-12 22:28S 24°08' W 046°21'4 4.6
2016-Feb-12 21:34S 24°04' W 046°22'7 7.1
2016-Feb-12 20:34S 23°58' W 046°18'4 3.3
2016-Feb-12 19:26S 23°55' W 046°21'0 0.0
2016-Feb-12 18:31S 23°55' W 046°21'0 0.0
2016-Feb-12 15:12S 23°55' W 046°21'0 0.0
2016-Feb-12 14:30S 23°55' W 046°21'0 0.0
2016-Feb-12 13:23S 23°55' W 046°21'0 0.0
2016-Feb-12 12:29S 23°55' W 046°21'0 0.0
2016-Feb-12 11:28S 23°55' W 046°21'0 0.0
2016-Feb-12 10:31S 23°55' W 046°21'0 0.0
2016-Feb-12 09:33S 23°55' W 046°21'5 4.6
2016-Feb-12 08:33S 23°59' W 046°17'8 8.5
2016-Feb-12 07:33S 24°05' W 046°23'8 7.7
2016-Feb-12 06:32S 24°13' W 046°22'1010.4
2016-Feb-12 05:32S 24°21' W 046°14'1010.7
2016-Feb-12 04:33S 24°23' W 046°03'  

Dump ship's entire track history